Time;durP1;ratioP1;P1;durP2;ratioP2;P2;SDS_P1;SDS_P2;PMS_P1;PMS_P2;Temp;Humidity;BMP_temperature;BMP_pressure;BME280_temperature;BME280_humidity;BME280_pressure;Samples;Min_cycle;Max_cycle;Signal;HPM_P1;HPM_P2
2022/01/14 00:00:56;;;;;;;160.60;34.75;;;;;;;-0.04;100.00;102074.19;5021171;28;20381;-80
2022/01/14 00:03:21;;;;;;;128.00;32.63;;;;;;;0.04;100.00;102080.69;5019008;28;20069;-80
2022/01/14 00:05:46;;;;;;;161.13;33.33;;;;;;;-0.02;100.00;102086.56;5019188;28;20026;-80
2022/01/14 00:08:11;;;;;;;141.63;31.67;;;;;;;-0.08;100.00;102085.41;5019432;28;20092;-79
2022/01/14 00:10:37;;;;;;;122.13;29.83;;;;;;;0.05;100.00;102085.09;5020790;28;20036;-80
2022/01/14 00:13:12;;;;;;;133.00;30.25;;;;;;;0.01;100.00;102082.28;5018576;28;20501;-80
2022/01/14 00:15:37;;;;;;;136.63;30.80;;;;;;;-0.07;100.00;102081.94;5020448;28;20025;-80
2022/01/14 00:18:03;;;;;;;206.20;34.65;;;;;;;-0.13;100.00;102080.84;5016375;28;20021;-79
2022/01/14 00:20:28;;;;;;;113.80;28.92;;;;;;;-0.03;100.00;102073.38;5016243;28;20030;-80
2022/01/14 00:22:54;;;;;;;187.10;34.90;;;;;;;-0.13;100.00;102070.34;5016801;28;20030;-80
2022/01/14 00:33:29;;;;;;;158.05;30.58;;;;;;;-0.12;100.00;102072.16;5018751;28;20073;-79
2022/01/14 00:35:54;;;;;;;196.98;34.65;;;;;;;-0.20;100.00;102067.38;5019079;28;20065;-80
2022/01/14 00:38:20;;;;;;;144.95;31.38;;;;;;;-0.06;100.00;102073.25;5020154;28;20085;-80
2022/01/14 00:40:46;;;;;;;155.15;30.08;;;;;;;-0.15;100.00;102073.72;5023093;28;20022;-80
2022/01/14 00:43:12;;;;;;;129.00;30.00;;;;;;;-0.11;100.00;102073.06;5028011;28;20026;-80
2022/01/14 00:45:38;;;;;;;86.85;27.10;;;;;;;-0.03;100.00;102070.75;5028103;28;20085;-81
2022/01/14 00:48:04;;;;;;;174.60;31.30;;;;;;;-0.07;100.00;102067.09;5027220;28;20054;-81
2022/01/14 00:50:30;;;;;;;153.73;32.90;;;;;;;-0.09;100.00;102067.84;5027292;28;20030;-81
2022/01/14 00:52:55;;;;;;;110.20;29.10;;;;;;;0.04;100.00;102067.56;5022373;28;20028;-81
2022/01/14 00:55:29;;;;;;;109.82;29.92;;;;;;;-0.06;100.00;102065.38;5015202;28;20021;-80
2022/01/14 01:00:31;;;;;;;102.03;29.15;;;;;;;-0.03;100.00;102076.00;5017687;28;20029;-81
2022/01/14 01:02:56;;;;;;;98.35;27.55;;;;;;;0.01;100.00;102077.94;5024809;28;20168;-81
2022/01/14 01:05:22;;;;;;;96.65;28.75;;;;;;;0.02;100.00;102074.47;5026081;28;20053;-80
2022/01/14 01:10:26;;;;;;;83.30;26.15;;;;;;;0.11;100.00;102073.94;5030797;28;20030;-81
2022/01/14 01:13:00;;;;;;;83.75;27.23;;;;;;;0.02;100.00;102073.56;5030724;28;20105;-80
2022/01/14 01:15:26;;;;;;;78.10;27.38;;;;;;;0.12;100.00;102080.13;5028530;28;20056;-80
2022/01/14 01:17:51;;;;;;;92.10;28.88;;;;;;;0.03;100.00;102076.25;5029463;28;20021;-81
2022/01/14 01:20:18;;;;;;;73.63;24.90;;;;;;;0.14;100.00;102073.19;5029150;28;20032;-82
2022/01/14 01:22:48;;;;;;;71.47;24.42;;;;;;;0.17;100.00;102078.56;5028824;28;20029;-82
2022/01/14 01:25:17;;;;;;;73.30;24.77;;;;;;;0.14;100.00;102078.44;5025726;28;20088;-81
2022/01/14 01:27:44;;;;;;;68.15;24.75;;;;;;;0.18;100.00;102077.75;5024400;28;20022;-80
2022/01/14 01:30:16;;;;;;;74.88;24.73;;;;;;;0.18;100.00;102080.38;5021049;28;20029;-81
2022/01/14 01:32:48;;;;;;;77.93;24.80;;;;;;;0.17;100.00;102094.34;5021359;28;20405;-79
2022/01/14 01:35:15;;;;;;;76.93;24.65;;;;;;;0.07;100.00;102088.72;5020427;28;20028;-81
2022/01/14 01:37:40;;;;;;;69.00;24.08;;;;;;;0.21;100.00;102091.00;5022030;28;20037;-80
2022/01/14 01:40:06;;;;;;;67.38;24.63;;;;;;;0.19;100.00;102084.78;5022928;28;20026;-81
2022/01/14 01:42:32;;;;;;;63.33;23.25;;;;;;;0.19;100.00;102088.31;5023604;28;20032;-81
2022/01/14 01:44:59;;;;;;;65.00;23.92;;;;;;;0.19;100.00;102087.41;5023153;28;20045;-81
2022/01/14 01:47:24;;;;;;;71.95;25.38;;;;;;;0.18;100.00;102090.91;5022674;28;20030;-80
2022/01/14 01:49:50;;;;;;;66.32;25.15;;;;;;;0.19;100.00;102082.16;5022719;28;20018;-80
2022/01/14 01:52:15;;;;;;;76.68;25.48;;;;;;;0.20;100.00;102078.72;5023238;28;20025;-80
2022/01/14 01:54:40;;;;;;;73.80;26.27;;;;;;;0.05;100.00;102065.84;5024293;28;20040;-81
2022/01/14 01:57:06;;;;;;;75.47;25.63;;;;;;;0.12;100.00;102072.22;5024220;28;20056;-80
2022/01/14 01:59:32;;;;;;;78.30;26.65;;;;;;;0.08;100.00;102061.59;5025270;28;20030;-79
2022/01/14 02:01:59;;;;;;;72.47;24.33;;;;;;;0.18;100.00;102065.50;5023593;28;20080;-80
2022/01/14 02:04:25;;;;;;;66.45;24.98;;;;;;;0.17;100.00;102057.56;5023340;28;20046;-81
2022/01/14 02:06:52;;;;;;;78.60;26.65;;;;;;;0.08;100.00;102058.97;5019776;28;20069;-80
2022/01/14 02:09:18;;;;;;;76.47;27.02;;;;;;;0.16;100.00;102054.03;5020438;28;20574;-80
2022/01/14 02:11:43;;;;;;;74.45;26.20;;;;;;;0.15;100.00;102048.72;5020190;28;20057;-80
2022/01/14 02:14:40;;;;;;;79.97;27.00;;;;;;;0.07;100.00;102038.78;5016536;28;20029;-80
2022/01/14 02:22:09;;;;;;;75.55;26.58;;;;;;;0.10;100.00;102023.13;5021255;28;20026;-81
2022/01/14 02:22:46;;;;;;;83.45;26.88;;;;;;;0.10;100.00;102025.75;5020460;28;20029;-80
2022/01/14 02:25:12;;;;;;;83.50;26.13;;;;;;;0.19;100.00;102020.00;5019040;28;20014;-81
2022/01/14 02:27:37;;;;;;;88.60;29.38;;;;;;;0.06;100.00;102023.84;5019348;28;20053;-80
2022/01/14 02:30:05;;;;;;;89.93;26.73;;;;;;;0.13;100.00;102018.88;5019825;28;20018;-81
2022/01/14 02:32:30;;;;;;;110.18;30.70;;;;;;;0.15;100.00;102032.97;4986589;28;997328;-81
2022/01/14 02:34:55;;;;;;;122.90;31.05;;;;;;;0.03;100.00;102026.34;5021599;28;20112;-81
2022/01/14 02:37:21;;;;;;;119.18;32.08;;;;;;;0.00;100.00;102034.13;5021359;28;20160;-80
2022/01/14 02:39:46;;;;;;;112.40;31.13;;;;;;;0.10;100.00;102031.03;5020582;28;20029;-80
2022/01/14 02:42:12;;;;;;;98.55;29.17;;;;;;;0.19;100.00;102029.63;5017673;28;20462;-81
2022/01/14 02:44:37;;;;;;;108.53;31.27;;;;;;;0.09;100.00;102025.72;5017789;28;20026;-80
2022/01/14 02:47:04;;;;;;;108.50;30.48;;;;;;;0.11;100.00;102026.66;5019296;28;20022;-80
2022/01/14 02:49:31;;;;;;;116.95;29.95;;;;;;;0.15;100.00;102023.34;5027326;28;20394;-81
2022/01/14 02:51:57;;;;;;;103.40;30.23;;;;;;;0.09;100.00;102031.88;5025803;28;20029;-80
2022/01/14 02:54:32;;;;;;;108.32;28.88;;;;;;;0.16;100.00;102032.09;5025423;28;20026;-80
2022/01/14 02:56:57;;;;;;;85.57;27.20;;;;;;;0.23;100.00;102026.28;5026816;28;20471;-81
2022/01/14 02:59:25;;;;;;;90.13;28.77;;;;;;;0.21;100.00;102023.59;5026588;28;20109;-81
2022/01/14 03:01:50;;;;;;;95.40;29.33;;;;;;;0.20;100.00;102013.03;5025275;28;20117;-81
2022/01/14 03:04:21;;;;;;;102.28;27.90;;;;;;;0.20;100.00;102018.28;5024680;28;20460;-81
2022/01/14 03:06:47;;;;;;;103.28;29.00;;;;;;;0.13;100.00;102008.38;5026062;28;20076;-81
2022/01/14 03:09:12;;;;;;;127.97;30.67;;;;;;;0.10;100.00;102006.50;5025286;28;20022;-81
2022/01/14 03:11:53;;;;;;;98.35;28.75;;;;;;;0.27;100.00;102007.19;5026018;28;20090;-81
2022/01/14 03:14:25;;;;;;;99.43;28.58;;;;;;;0.27;100.00;101996.69;5025242;28;20030;-81
2022/01/14 03:16:53;;;;;;;102.15;27.98;;;;;;;0.29;100.00;102000.25;5022097;28;20029;-80
2022/01/14 03:19:24;;;;;;;104.63;28.60;;;;;;;0.27;100.00;102001.94;5016904;28;20022;-80
2022/01/14 03:21:52;;;;;;;102.13;29.83;;;;;;;0.26;100.00;101999.25;5017132;28;20018;-80
2022/01/14 03:25:37;;;;;;;88.95;26.60;;;;;;;0.36;100.00;102001.38;5016346;28;20057;-82
2022/01/14 03:27:09;;;;;;;100.03;29.30;;;;;;;0.32;100.00;102000.38;5018073;28;20034;-81
2022/01/14 03:29:35;;;;;;;92.40;28.40;;;;;;;0.36;100.00;101995.25;5017964;28;20036;-81
2022/01/14 03:32:01;;;;;;;78.28;24.67;;;;;;;0.48;100.00;101997.47;5018869;28;20022;-81
2022/01/14 03:34:26;;;;;;;86.03;25.75;;;;;;;0.50;100.00;101996.69;5019937;28;20033;-81
2022/01/14 03:36:52;;;;;;;100.95;26.50;;;;;;;0.44;100.00;101983.28;5018023;28;20014;-81
2022/01/14 03:39:18;;;;;;;74.43;24.45;;;;;;;0.51;100.00;101985.34;5019427;28;20056;-80
2022/01/14 03:41:44;;;;;;;95.85;27.08;;;;;;;0.36;100.00;101979.50;5020789;28;20033;-80
2022/01/14 03:44:09;;;;;;;69.25;23.27;;;;;;;0.48;100.00;101973.81;5022581;28;20367;-80
2022/01/14 03:46:35;;;;;;;81.45;25.98;;;;;;;0.50;100.00;101977.38;5024682;28;20107;-81
2022/01/14 03:49:00;;;;;;;81.72;25.75;;;;;;;0.47;100.00;101978.16;5023019;28;20109;-81
2022/01/14 03:51:27;;;;;;;74.28;24.25;;;;;;;0.47;100.00;101980.78;5024015;28;20471;-80
2022/01/14 03:53:53;;;;;;;87.75;25.42;;;;;;;0.41;100.00;101977.94;5015446;28;20033;-80
2022/01/14 03:56:18;;;;;;;70.25;24.75;;;;;;;0.59;100.00;101977.78;5015739;28;20371;-80
2022/01/14 03:58:43;;;;;;;94.03;26.88;;;;;;;0.43;100.00;101976.25;5016550;28;20022;-80
2022/01/14 04:01:10;;;;;;;88.93;25.58;;;;;;;0.43;100.00;101971.00;5016355;28;20053;-80
2022/01/14 04:03:42;;;;;;;87.88;25.95;;;;;;;0.38;100.00;101965.56;5016940;28;20124;-80
2022/01/14 04:06:10;;;;;;;110.95;29.20;;;;;;;0.36;100.00;101971.59;5019280;28;20045;-81
2022/01/14 04:08:36;;;;;;;87.88;25.88;;;;;;;0.45;100.00;101966.69;5017783;28;20030;-80
2022/01/14 04:11:02;;;;;;;82.07;25.63;;;;;;;0.34;100.00;101966.28;5019846;28;20033;-81
2022/01/14 04:14:08;;;;;;;90.03;26.15;;;;;;;0.44;100.00;101968.44;5019083;28;20057;-81
2022/01/14 04:16:22;;;;;;;81.00;27.05;;;;;;;0.48;100.00;101971.19;5018335;28;20109;-80
2022/01/14 04:18:49;;;;;;;108.70;31.38;;;;;;;0.36;100.00;101971.59;5021968;28;20033;-81
2022/01/14 04:21:15;;;;;;;104.18;29.98;;;;;;;0.32;100.00;101963.59;5024943;28;20483;-81
2022/01/14 04:23:41;;;;;;;102.82;28.83;;;;;;;0.29;100.00;101958.22;5022583;28;20029;-81
2022/01/14 04:26:06;;;;;;;81.30;26.25;;;;;;;0.33;100.00;101954.88;5023726;28;20022;-81
2022/01/14 04:28:35;;;;;;;76.95;25.38;;;;;;;0.36;100.00;101953.22;5019678;28;20033;-81
2022/01/14 04:31:05;;;;;;;89.68;25.70;;;;;;;0.29;100.00;101947.69;5015493;28;20022;-80
2022/01/14 04:33:32;;;;;;;79.03;25.73;;;;;;;0.35;100.00;101938.25;5015773;28;20027;-80
2022/01/14 04:35:58;;;;;;;80.97;25.15;;;;;;;0.30;100.00;101939.00;5017071;28;20017;-81
2022/01/14 04:38:25;;;;;;;93.03;26.10;;;;;;;0.22;100.00;101945.66;5017656;28;20026;-82
2022/01/14 04:40:50;;;;;;;82.40;26.00;;;;;;;0.35;100.00;101954.03;5015433;28;20083;-82
2022/01/14 04:43:19;;;;;;;93.70;27.10;;;;;;;0.24;100.00;101948.34;5014578;28;20026;-83
2022/01/14 04:46:02;;;;;;;84.72;26.90;;;;;;;0.29;100.00;101952.94;5013053;28;20033;-83
2022/01/14 04:48:29;;;;;;;88.25;26.35;;;;;;;0.28;100.00;101950.28;5013194;28;20052;-82
2022/01/14 04:50:55;;;;;;;93.55;27.17;;;;;;;0.22;100.00;101945.66;5012986;28;20071;-82
2022/01/14 04:53:21;;;;;;;89.00;25.25;;;;;;;0.35;100.00;101940.88;5016311;28;20018;-82
2022/01/14 04:55:47;;;;;;;70.68;24.63;;;;;;;0.32;100.00;101947.81;5022731;28;20405;-82
2022/01/14 04:58:12;;;;;;;88.32;26.27;;;;;;;0.22;100.00;101943.94;5013144;28;20496;-82
2022/01/14 05:00:39;;;;;;;89.20;25.40;;;;;;;0.20;100.00;101942.09;5014235;28;20101;-82
2022/01/14 05:03:04;;;;;;;93.40;26.27;;;;;;;0.14;100.00;101936.56;5014208;28;20037;-82
2022/01/14 05:05:33;;;;;;;117.82;29.67;;;;;;;0.14;100.00;101937.47;5014196;28;20029;-82
2022/01/14 05:08:02;;;;;;;98.90;27.50;;;;;;;0.15;100.00;101935.75;5013730;28;20029;-82
2022/01/14 05:12:53;;;;;;;108.13;27.83;;;;;;;0.18;100.00;101928.00;5015006;28;20018;-82
2022/01/14 05:15:19;;;;;;;142.88;31.13;;;;;;;0.12;100.00;101927.75;5014842;28;20022;-82
2022/01/14 05:18:05;;;;;;;135.95;30.85;;;;;;;0.21;100.00;101933.34;5013631;28;20109;-81
2022/01/14 05:20:30;;;;;;;119.15;29.00;;;;;;;0.17;100.00;101927.09;5013955;28;20101;-82
2022/01/14 05:22:56;;;;;;;88.00;26.85;;;;;;;0.38;100.00;101927.88;5013641;28;20107;-81
2022/01/14 05:25:21;;;;;;;95.60;27.48;;;;;;;0.26;100.00;101930.94;5015441;28;20022;-82
2022/01/14 05:27:49;;;;;;;86.07;24.35;;;;;;;0.29;100.00;101921.41;5013998;28;20032;-82
2022/01/14 05:30:18;;;;;;;141.38;30.88;;;;;;;0.21;100.00;101914.97;5013952;28;20098;-82
2022/01/14 05:32:46;;;;;;;119.07;27.52;;;;;;;0.18;100.00;101906.97;5028102;22;20025;-74
2022/01/14 05:35:13;;;;;;;136.18;32.05;;;;;;;0.16;100.00;101912.16;5013005;28;20026;-74
2022/01/14 05:37:38;;;;;;;111.53;30.17;;;;;;;0.20;100.00;101905.31;5012809;28;20026;-75
2022/01/14 05:40:04;;;;;;;108.75;29.65;;;;;;;0.23;100.00;101905.44;5012694;28;20045;-75
2022/01/14 05:42:33;;;;;;;141.95;31.40;;;;;;;0.21;100.00;101899.19;5012799;28;20391;-75
2022/01/14 05:44:59;;;;;;;124.38;30.08;;;;;;;0.22;100.00;101877.34;5011212;28;20056;-75
2022/01/14 05:47:25;;;;;;;135.30;31.00;;;;;;;0.20;100.00;101874.69;5013232;28;20030;-75
2022/01/14 05:49:50;;;;;;;123.82;31.40;;;;;;;0.22;100.00;101872.09;5016347;28;20030;-75
2022/01/14 05:52:15;;;;;;;157.88;35.08;;;;;;;0.22;100.00;101877.34;5014798;28;20101;-75
2022/01/14 05:54:41;;;;;;;158.23;34.60;;;;;;;0.20;100.00;101885.19;5016025;28;20026;-74
2022/01/14 05:57:06;;;;;;;169.85;37.22;;;;;;;0.20;100.00;101869.41;5015950;28;20061;-75
2022/01/14 05:59:31;;;;;;;136.38;30.52;;;;;;;0.28;100.00;101861.84;5015984;28;20028;-75
2022/01/14 06:01:56;;;;;;;219.90;39.00;;;;;;;0.21;100.00;101865.03;5015914;28;20466;-75
2022/01/14 06:04:22;;;;;;;176.82;36.17;;;;;;;0.22;100.00;101872.09;5015993;28;20071;-75
2022/01/14 06:06:47;;;;;;;139.98;32.13;;;;;;;0.28;100.00;101861.84;5015892;28;20390;-74
2022/01/14 06:09:12;;;;;;;175.32;34.88;;;;;;;0.21;100.00;101862.41;5016118;28;20087;-74
2022/01/14 06:11:37;;;;;;;164.63;37.35;;;;;;;0.25;100.00;101863.44;5016139;28;20029;-74
2022/01/14 06:14:03;;;;;;;168.52;35.55;;;;;;;0.25;100.00;101864.34;5015764;28;20072;-74
2022/01/14 06:16:28;;;;;;;176.00;38.15;;;;;;;0.22;100.00;101851.97;5015759;28;20399;-75
2022/01/14 06:18:53;;;;;;;145.07;33.90;;;;;;;0.25;100.00;101866.06;5015802;28;20368;-75
2022/01/14 06:21:19;;;;;;;128.15;32.58;;;;;;;0.33;100.00;101864.63;5014586;28;20112;-75
2022/01/14 06:23:44;;;;;;;188.38;38.67;;;;;;;0.24;100.00;101875.66;5015923;28;20037;-75
2022/01/14 06:26:10;;;;;;;177.48;36.40;;;;;;;0.23;100.00;101873.91;5015701;28;20088;-75
2022/01/14 06:28:35;;;;;;;145.65;34.97;;;;;;;0.24;100.00;101861.63;5015574;28;20384;-75
2022/01/14 06:31:00;;;;;;;201.02;38.80;;;;;;;0.20;100.00;101858.91;5015541;28;20499;-74
2022/01/14 06:33:26;;;;;;;134.18;32.67;;;;;;;0.21;100.00;101867.66;5014022;28;20034;-75
2022/01/14 06:35:51;;;;;;;137.30;31.80;;;;;;;0.25;100.00;101851.19;5015586;28;20024;-74
2022/01/14 06:38:18;;;;;;;195.13;35.95;;;;;;;0.18;100.00;101863.19;5015419;28;20053;-75
2022/01/14 06:40:46;;;;;;;203.55;35.03;;;;;;;0.21;100.00;101860.69;5015202;28;20475;-74
2022/01/14 06:43:12;;;;;;;316.15;43.50;;;;;;;0.15;100.00;101859.56;5013911;28;20030;-74
2022/01/14 06:45:37;;;;;;;171.18;36.65;;;;;;;0.19;100.00;101866.72;5013950;28;20022;-74
2022/01/14 06:48:02;;;;;;;207.35;37.95;;;;;;;0.19;100.00;101866.72;5015309;28;20037;-74
2022/01/14 06:50:28;;;;;;;251.07;39.33;;;;;;;0.17;100.00;101873.66;5014960;28;20097;-74
2022/01/14 06:52:53;;;;;;;153.98;32.63;;;;;;;0.23;100.00;101847.63;5015107;28;20455;-75
2022/01/14 06:55:19;;;;;;;229.80;38.13;;;;;;;0.16;100.00;101841.22;5013730;28;20018;-75
2022/01/14 06:57:44;;;;;;;211.75;36.85;;;;;;;0.16;100.00;101845.56;5015699;28;20025;-74
2022/01/14 07:00:14;;;;;;;185.05;37.17;;;;;;;0.12;100.00;101848.94;5014191;28;20026;-75
2022/01/14 07:02:40;;;;;;;204.68;38.10;;;;;;;0.14;100.00;101848.16;5014929;28;20541;-75
2022/01/14 07:05:07;;;;;;;174.25;38.10;;;;;;;0.16;100.00;101850.81;5015303;28;20030;-75
2022/01/14 07:07:32;;;;;;;174.52;34.80;;;;;;;0.14;100.00;101856.03;5014911;28;20026;-74
2022/01/14 07:09:58;;;;;;;185.10;37.80;;;;;;;0.12;100.00;101859.44;5015080;28;20026;-74
2022/01/14 07:12:31;;;;;;;172.57;36.38;;;;;;;0.23;100.00;101866.03;5015423;28;20030;-73
2022/01/14 07:14:57;;;;;;;178.32;36.03;;;;;;;0.21;100.00;101859.78;5015431;28;20489;-74
2022/01/14 07:17:24;;;;;;;144.32;32.92;;;;;;;0.31;100.00;101871.56;5014962;28;20469;-73
2022/01/14 07:19:52;;;;;;;135.85;33.17;;;;;;;0.29;100.00;101884.63;5014892;28;20057;-73
2022/01/14 07:22:19;;;;;;;152.57;34.25;;;;;;;0.31;100.00;101877.69;5014823;28;20026;-73
2022/01/14 07:24:44;;;;;;;127.35;32.17;;;;;;;0.29;100.00;101884.63;5014875;28;20104;-73
2022/01/14 07:27:10;;;;;;;160.90;36.67;;;;;;;0.28;100.00;101900.34;5014970;28;20108;-73
2022/01/14 07:29:35;;;;;;;161.15;35.05;;;;;;;0.27;100.00;101890.66;5013447;28;20053;-73
2022/01/14 07:32:01;;;;;;;166.43;34.58;;;;;;;0.27;100.00;101896.81;5013490;28;20029;-73
2022/01/14 07:34:26;;;;;;;152.85;33.30;;;;;;;0.28;100.00;101901.25;5014733;28;20034;-74
2022/01/14 07:36:52;;;;;;;179.80;35.92;;;;;;;0.30;100.00;101904.81;5015448;28;20105;-74
2022/01/14 07:39:19;;;;;;;118.97;30.95;;;;;;;0.35;100.00;101909.34;5014667;28;20030;-74
2022/01/14 07:41:46;;;;;;;151.07;33.58;;;;;;;0.39;100.00;101909.53;5013198;28;20479;-73
2022/01/14 07:44:11;;;;;;;155.50;33.03;;;;;;;0.30;100.00;101917.06;5014733;28;20486;-73
2022/01/14 07:46:37;;;;;;;174.80;35.10;;;;;;;0.28;100.00;101919.66;5014636;28;20025;-73
2022/01/14 07:49:03;;;;;;;193.68;39.80;;;;;;;0.28;100.00;101932.78;5014375;28;20407;-73
2022/01/14 07:51:29;;;;;;;154.10;32.33;;;;;;;0.32;100.00;101932.06;5014241;28;20029;-73
2022/01/14 07:53:54;;;;;;;161.27;33.08;;;;;;;0.27;100.00;101943.22;5014208;28;20036;-73
2022/01/14 07:56:19;;;;;;;190.02;34.50;;;;;;;0.26;100.00;101944.94;5014197;28;20093;-73
2022/01/14 07:58:45;;;;;;;166.10;35.25;;;;;;;0.29;100.00;101942.44;5014155;28;20026;-73
2022/01/14 08:01:10;;;;;;;166.57;36.10;;;;;;;0.26;100.00;101951.94;5013046;28;20060;-74
2022/01/14 08:03:35;;;;;;;162.25;33.42;;;;;;;0.29;100.00;101954.69;5014116;28;20112;-73
2022/01/14 08:06:01;;;;;;;140.02;32.25;;;;;;;0.37;100.00;101952.34;5013975;28;20014;-73
2022/01/14 08:08:28;;;;;;;139.48;33.33;;;;;;;0.38;100.00;101962.03;5013996;28;20028;-73
2022/01/14 08:10:54;;;;;;;196.68;36.63;;;;;;;0.35;100.00;101956.66;5013038;28;20032;-73
2022/01/14 08:13:19;;;;;;;132.20;32.85;;;;;;;0.35;100.00;101951.41;5012772;28;20018;-73
2022/01/14 08:15:45;;;;;;;181.05;35.33;;;;;;;0.37;100.00;101957.59;5013973;28;20376;-74
2022/01/14 08:18:10;;;;;;;152.70;35.50;;;;;;;0.37;100.00;101950.63;5013948;28;20022;-74
2022/01/14 08:20:35;;;;;;;125.85;32.38;;;;;;;0.44;100.00;101951.75;5014023;28;20022;-74
2022/01/14 08:23:01;;;;;;;134.70;33.13;;;;;;;0.47;100.00;101946.63;5013821;28;20030;-74
2022/01/14 08:25:27;;;;;;;146.13;33.40;;;;;;;0.44;100.00;101946.50;5013730;28;20018;-74
2022/01/14 08:27:53;;;;;;;127.22;31.58;;;;;;;0.43;100.00;101952.59;5013750;28;20104;-74
2022/01/14 08:30:18;;;;;;;131.30;31.90;;;;;;;0.48;100.00;101958.03;5013682;28;20106;-73
2022/01/14 08:32:44;;;;;;;178.00;35.88;;;;;;;0.37;100.00;101954.97;5012329;28;20033;-74
2022/01/14 08:35:09;;;;;;;161.55;34.83;;;;;;;0.40;100.00;101956.00;5013664;28;20479;-74
2022/01/14 08:37:37;;;;;;;147.32;34.25;;;;;;;0.44;100.00;101957.91;5013644;28;20022;-74
2022/01/14 08:40:03;;;;;;;124.68;32.03;;;;;;;0.48;100.00;101961.56;5013521;28;20101;-73
2022/01/14 08:42:29;;;;;;;146.30;31.90;;;;;;;0.51;100.00;101968.69;5013460;28;20180;-74
2022/01/14 08:44:54;;;;;;;151.23;34.97;;;;;;;0.52;100.00;101970.44;5013583;28;20022;-73
2022/01/14 08:47:19;;;;;;;154.52;34.92;;;;;;;0.48;100.00;101976.44;5013778;28;20029;-74
2022/01/14 08:49:44;;;;;;;130.98;31.15;;;;;;;0.47;100.00;101967.66;5012103;28;20028;-74
2022/01/14 08:52:12;;;;;;;136.68;32.00;;;;;;;0.49;100.00;101963.34;5013420;28;20033;-74
2022/01/14 08:54:37;;;;;;;141.35;33.53;;;;;;;0.54;100.00;101963.53;5013457;28;20030;-74
2022/01/14 08:57:03;;;;;;;122.00;31.05;;;;;;;0.58;100.00;101972.44;5012139;28;20113;-74
2022/01/14 08:59:29;;;;;;;142.65;32.42;;;;;;;0.57;100.00;101971.53;5013399;28;20022;-73
2022/01/14 09:01:55;;;;;;;158.90;34.03;;;;;;;0.54;100.00;101974.94;5013417;28;20029;-74
2022/01/14 09:04:20;;;;;;;127.05;31.55;;;;;;;0.60;100.00;101960.22;5013280;28;20022;-74
2022/01/14 09:06:46;;;;;;;137.68;32.72;;;;;;;0.63;100.00;101963.00;5013180;28;20364;-74
2022/01/14 09:09:11;;;;;;;128.45;31.65;;;;;;;0.62;100.00;101958.59;5013250;28;20124;-74
2022/01/14 09:11:36;;;;;;;130.57;32.55;;;;;;;0.70;100.00;101977.25;5011891;28;20018;-74
2022/01/14 09:14:02;;;;;;;136.75;32.85;;;;;;;0.69;100.00;101976.38;5013098;28;20021;-74
2022/01/14 09:16:27;;;;;;;143.98;32.90;;;;;;;0.70;100.00;101982.50;5011963;28;20390;-74
2022/01/14 09:18:53;;;;;;;137.45;31.55;;;;;;;0.71;100.00;101979.97;5011869;28;20022;-74
2022/01/14 09:21:18;;;;;;;108.70;29.73;;;;;;;0.77;100.00;101990.69;5013149;28;20026;-74
2022/01/14 09:23:52;;;;;;;123.80;32.33;;;;;;;0.71;100.00;101984.31;5016412;28;20430;-74
2022/01/14 09:26:18;;;;;;;133.57;33.15;;;;;;;0.72;100.00;101981.75;5017092;28;20022;-73
2022/01/14 09:28:43;;;;;;;120.10;30.33;;;;;;;0.74;100.00;101977.47;5017093;28;20033;-74
2022/01/14 09:31:09;;;;;;;107.75;27.55;;;;;;;0.82;100.00;101990.00;5016936;28;20060;-74
2022/01/14 09:33:35;;;;;;;105.15;29.38;;;;;;;0.75;100.00;101989.75;5016845;28;20064;-74
2022/01/14 09:36:00;;;;;;;111.82;29.48;;;;;;;0.82;100.00;101995.25;5016870;28;20022;-73
2022/01/14 09:38:26;;;;;;;117.93;29.02;;;;;;;0.73;100.00;101994.06;5017669;28;20026;-74
2022/01/14 09:40:53;;;;;;;106.78;27.67;;;;;;;0.75;100.00;101995.00;5016703;28;20502;-74
2022/01/14 09:43:19;;;;;;;102.95;27.20;;;;;;;0.74;100.00;101998.50;5017196;28;20049;-74
2022/01/14 09:45:44;;;;;;;101.72;28.48;;;;;;;0.80;100.00;101991.69;5015332;28;20022;-74
2022/01/14 09:48:14;;;;;;;112.88;29.15;;;;;;;0.68;100.00;101995.63;5016692;28;20070;-74
2022/01/14 09:50:39;;;;;;;101.95;26.67;;;;;;;0.72;100.00;101999.28;5016755;28;20025;-74
2022/01/14 09:53:04;;;;;;;106.93;26.45;;;;;;;0.74;100.00;101998.50;5016602;28;20025;-74
2022/01/14 09:55:29;;;;;;;117.93;29.65;;;;;;;0.73;100.00;102006.31;5016739;28;20022;-74
2022/01/14 09:57:55;;;;;;;90.75;25.77;;;;;;;0.84;100.00;102004.09;5016498;28;20026;-74
2022/01/14 10:00:21;;;;;;;116.97;29.30;;;;;;;0.74;100.00;101989.69;5016452;28;20104;-74
2022/01/14 10:02:49;;;;;;;98.38;25.90;;;;;;;0.81;100.00;101996.09;5015133;28;20101;-74
2022/01/14 10:05:37;;;;;;;95.72;26.08;;;;;;;0.75;100.00;101989.75;5015094;28;20040;-74
2022/01/14 10:08:14;;;;;;;109.03;28.27;;;;;;;0.72;100.00;101989.63;5016596;28;20394;-74
2022/01/14 10:10:48;;;;;;;102.10;27.55;;;;;;;0.80;100.00;101984.66;5016248;28;20028;-74
2022/01/14 10:13:23;;;;;;;95.63;26.30;;;;;;;0.80;100.00;101983.78;5016197;28;20399;-74
2022/01/14 10:15:51;;;;;;;102.93;26.45;;;;;;;0.75;100.00;101983.59;5016150;28;20060;-74
2022/01/14 10:18:19;;;;;;;110.85;28.27;;;;;;;0.75;100.00;101994.09;5017254;28;20025;-74
2022/01/14 10:20:46;;;;;;;91.50;26.05;;;;;;;0.84;100.00;101988.31;5016052;28;20037;-74
2022/01/14 10:23:15;;;;;;;105.75;27.38;;;;;;;0.79;100.00;102001.31;5016077;28;20025;-74
2022/01/14 10:25:42;;;;;;;112.55;29.02;;;;;;;0.81;100.00;101994.34;5015955;28;20113;-74
2022/01/14 10:28:18;;;;;;;88.15;27.90;;;;;;;0.91;100.00;101990.34;5015890;28;20483;-73
2022/01/14 10:30:46;;;;;;;86.40;27.08;;;;;;;0.99;100.00;101985.38;5014899;28;20095;-74
2022/01/14 10:33:11;;;;;;;90.70;28.40;;;;;;;1.05;100.00;101977.72;5015612;28;20045;-74
2022/01/14 10:35:38;;;;;;;100.25;27.75;;;;;;;1.04;100.00;101981.16;5015145;28;20022;-73
2022/01/14 10:38:07;;;;;;;94.45;28.02;;;;;;;1.06;100.00;101978.59;5016026;28;20018;-74
2022/01/14 10:40:38;;;;;;;94.53;26.42;;;;;;;1.06;100.00;101970.69;5015978;28;20030;-74
2022/01/14 10:43:05;;;;;;;92.97;25.73;;;;;;;1.15;100.00;101963.16;5015739;28;20018;-74
2022/01/14 10:45:32;;;;;;;84.97;25.92;;;;;;;1.14;100.00;101966.63;5014395;28;20065;-73
2022/01/14 10:48:04;;;;;;;88.53;26.10;;;;;;;1.19;100.00;101954.53;5015650;28;20116;-74
2022/01/14 10:50:54;;;;;;;92.20;26.55;;;;;;;1.21;100.00;101958.09;5015443;28;20030;-73
2022/01/14 10:53:22;;;;;;;82.03;25.17;;;;;;;1.29;100.00;101962.75;5002898;28;20045;-74
2022/01/14 10:55:51;;;;;;;93.70;27.13;;;;;;;1.26;100.00;101955.66;5015651;28;20021;-74
2022/01/14 10:58:22;;;;;;;87.18;28.25;;;;;;;1.31;100.00;101947.91;5014045;28;20533;-74
2022/01/14 11:00:51;;;;;;;73.25;24.73;;;;;;;1.31;100.00;101958.44;5015627;28;20035;-74
2022/01/14 11:03:32;;;;;;;78.35;24.98;;;;;;;1.36;100.00;101962.13;5014094;28;20434;-73
2022/01/14 11:06:33;;;;;;;68.53;23.63;;;;;;;1.32;100.00;101953.22;5015263;28;20026;-73
2022/01/14 11:09:03;;;;;;;77.70;25.08;;;;;;;1.34;100.00;101954.16;5013951;28;20075;-74
2022/01/14 11:11:32;;;;;;;78.85;23.17;;;;;;;1.38;100.00;101949.91;5015330;28;20359;-73
2022/01/14 11:13:57;;;;;;;66.35;24.08;;;;;;;1.41;100.00;101955.31;5013861;28;20026;-74
2022/01/14 11:16:23;;;;;;;64.88;23.17;;;;;;;1.54;100.00;101961.00;5015179;28;20442;-73
2022/01/14 11:18:49;;;;;;;64.60;23.13;;;;;;;1.45;100.00;101966.81;5014979;28;20030;-73
2022/01/14 11:24:03;;;;;;;61.75;21.63;;;;;;;1.50;100.00;101969.59;5015480;28;20033;-74
2022/01/14 11:26:32;;;;;;;62.58;23.60;;;;;;;1.50;100.00;101969.59;5014767;28;20505;-73